Terminal Aerodrome Forecast
Issued by NWS

Home | Current Version | Previous Version | Text Only | Print | Product List | Glossary On
Versions: 1 2 3 4 5 6 7 8 9 10 11 12 13 14
000
FTUS42 KGSP 061728
TAFGMU
TAF
KGMU 061728Z 0618/0718 34011G19KT P6SM SCT060
     FM070000 33009KT P6SM SCT060
     FM070300 31005KT P6SM FEW250
     FM071500 26009G16KT P6SM FEW200=

USA.gov is the U.S. government's official web portal to all federal, state and local government web resources and services.